Aeroporto :
LOGIN :

Iscrizione | Disclaimer

   EN    FR    IT 

 










Sommario :    VFR   VFR Marginale   IFR   IFR Intensivo   IFR Molto Intensivo
Visibilità : 
Base nubi : 
>= 8 km
>= 3000ft
5 / 8 km
1000 / 3000 ft
1500m / 5 km
500 / 1000 ft
800 / 1500m
200 / 500 ft
< 800m
< 200 ft
Simboli :   Temporali  Nebbia  Neve Forte  Precipitazioni Forti  Vento > 20 kt
SIGMETs :   Varie  Temporali  Ghiacco  Turbolenza  Onda orograficha  Ceneri Vulcaniche






- Altitudine del aeroporto : 285 ft
- Codice IATA : GOZ


LBGO - Gorna Oryahovitsa

ULTIMO METAR :
  • 130730Z AUTO 04003KT 6000 SCT040 07/07 Q1003 TEMPO 1500 BR

METARs OBSOLETI :
  • 130700Z AUTO 09005KT 2600 BR NCD 05/05 Q1002 TEMPO 1500 BR
  • 130630Z AUTO 08006KT 2900 BR NCD 04/04 Q1003 TEMPO 2000 BR
  • 130600Z AUTO 12006KT 9999 NCD 05/05 Q1003 TEMPO 2000 BR
  • 130530Z AUTO 09006KT 0700 0600SW R/////// FG FEW036 03/03 Q1003 TEMPO 0600 BCFG
  • 130500Z AUTO 07004KT 040V100 9999 FEW042 05/05 Q1003 NOSIG

TAF TAF LBGO
Valido dal 13 a 06 ore il 14 a 06 ore UTC


130500Z 1306/1406 12010KT 9999 SCT020 BKN035
BECMG 1320/1322 5000 BR BKN015



MetMap, La meteo Aeronautica in un colpo d'occhio ! - Copyright ORBIFLY Dicembre 2007 - Disclaimer

ORBIFLY MET'MAP TEAM :

Programmazione e sviluppo : Alexandra Zaïnal
Concezione : Baudouin d'Aumeries
Aiuto per la programmazione : Marc-Olivier Méhu
Supporto tecnico e logistico : Manuel Goepfert
Aiuto per la traduzione : Arnaldo La Scala

Contatto : metmap@orbifly.com




FONTI E CREDITI :

   NOAA